Impacts METAR Board
IDs:

KDHN - Dothan Rgnl, AL, US

Updated at: 1700 UTC 23 Jan 2019
Potential Impact None Slight Moderate High
Time 23/05Z 23/06Z 23/07Z 23/08Z 23/09Z 23/10Z 23/11Z 23/12Z 23/13Z 23/14Z 23/15Z 23/16Z 23/17Z
Temp58 58 57 57 58 58 57 57 58 59 61 67 72
Dewpt49 49 49 50 50 51 51 51 51 52 52 53 54
Altim30.29 30.26 30.24 30.24 30.22 30.19 30.18 30.20 30.18 30.17 30.14 30.10 30.08
VIS10 10 10 10 10 10 10 10 10 10 10 10 10
CIG70 75 80 80 75 80 85 65 90 85 85 -- 95
CoverOVCOVCOVCOVCOVCOVCOVCOVCOVCOVCBKNSCTBKN
FltCatVFRVFRVFRVFRVFRVFRVFRVFRVFRVFRVFRVFRVFR
WX--------------------------
WDir110110120120130120120130140130130150160
WSpd11 13 15 11 12 14 12 13 12 17 19 19 22
WGst-- 21 22 -- -- -- -- -- -- -- 25 27 31
Raw hourly METARs
KDHN 230453Z AUTO 11011KT 10SM OVC070 14/09 A3029 RMK AO2 SLP254 T01440094 401610022
KDHN 230553Z AUTO 11013G21KT 10SM OVC075 14/09 A3026 RMK AO2 SLP244 T01440094 10150 20133 58017
KDHN 230653Z AUTO 12015G22KT 10SM OVC080 14/09 A3024 RMK AO2 SLP239 T01390094
KDHN 230753Z AUTO 12011KT 10SM OVC080 14/10 A3024 RMK AO2 SLP238 T01390100
KDHN 230853Z AUTO 13012KT 10SM OVC075 14/10 A3022 RMK AO2 SLP231 T01440100 58011
KDHN 230953Z AUTO 12014KT 10SM OVC080 14/11 A3019 RMK AO2 SLP221 T01440106
KDHN 231053Z AUTO 12012KT 10SM OVC085 14/11 A3018 RMK AO2 SLP219 T01390106
KDHN 231153Z 13013KT 10SM BKN065 OVC085 14/11 A3020 RMK AO2 SLP223 T01390106 10144 20139 55009
KDHN 231253Z 14012KT 10SM FEW065 OVC090 14/11 A3018 RMK AO2 SLP217 T01440106
KDHN 231353Z 13017KT 10SM OVC085 15/11 A3017 RMK AO2 SLP213 T01500111
KDHN 231453Z 13019G25KT 10SM BKN085 16/11 A3014 RMK AO2 PK WND 13027/1412 SLP202 T01610111 58020
KDHN 231553Z 15019G27KT 10SM SCT090 19/12 A3010 RMK AO2 PK WND 14027/1514 SLP190 T01940117
KDHN 231653Z 16022G31KT 10SM FEW032 BKN095 22/12 A3008 RMK AO2 PK WND 16035/1636 SLP182 T02220122



Page loaded:  17:26 UTC  |   09:26 AM Pacific  |   10:26 AM Mountain  |   11:26 AM Central  |   12:26 PM Eastern

 

ADVISORIES

FORECASTS

FORECASTS

OBSERVATIONS

USER TOOLS

ABOUT US